createdAt,value
2017-11-13T00:00:07.603Z,0.00
2017-11-13T00:01:07.579Z,0.00
2017-11-13T00:02:07.547Z,0.00
2017-11-13T00:03:07.518Z,0.00
2017-11-13T00:04:07.498Z,0.00
2017-11-13T00:05:07.758Z,0.00
2017-11-13T00:06:07.446Z,0.00
2017-11-13T00:07:07.402Z,0.00
2017-11-13T00:08:07.371Z,0.00
2017-11-13T00:09:07.341Z,0.00
2017-11-13T00:10:07.307Z,0.00
2017-11-13T00:11:07.529Z,0.00
2017-11-13T00:12:07.248Z,0.00
2017-11-13T00:13:07.226Z,0.00
2017-11-13T00:14:07.189Z,0.00
2017-11-13T00:15:07.158Z,0.00
2017-11-13T00:16:07.132Z,0.00
2017-11-13T00:17:07.609Z,0.00
2017-11-13T00:18:07.072Z,0.00
2017-11-13T00:19:07.043Z,0.00
2017-11-13T00:20:07.023Z,0.00
2017-11-13T00:21:06.985Z,0.00
2017-11-13T00:22:06.959Z,0.00
2017-11-13T00:23:06.924Z,0.00
2017-11-13T00:24:06.895Z,0.00
2017-11-13T00:25:06.869Z,0.00
2017-11-13T00:26:06.835Z,0.00
2017-11-13T00:27:06.801Z,0.00
2017-11-13T00:28:06.772Z,0.00
2017-11-13T00:29:06.995Z,0.00
2017-11-13T00:30:06.721Z,0.00
2017-11-13T00:31:06.701Z,0.00
2017-11-13T00:32:06.661Z,0.00
2017-11-13T00:33:06.626Z,0.00
2017-11-13T00:34:06.593Z,0.00
2017-11-13T00:35:06.571Z,0.00
2017-11-13T00:36:06.542Z,0.00
2017-11-13T00:37:06.508Z,0.00
2017-11-13T00:38:06.475Z,0.00
2017-11-13T00:39:06.460Z,0.00
2017-11-13T00:40:06.423Z,0.00
2017-11-13T00:41:06.393Z,0.00
2017-11-13T00:42:06.360Z,0.00
2017-11-13T00:43:06.336Z,0.00
2017-11-13T00:44:06.306Z,0.00
2017-11-13T00:45:06.570Z,0.00
2017-11-13T00:46:06.241Z,0.00
2017-11-13T00:47:06.213Z,0.00
2017-11-13T00:48:06.181Z,0.00
2017-11-13T00:49:06.171Z,0.00
2017-11-13T00:50:06.119Z,0.00
2017-11-13T00:51:06.439Z,0.00
2017-11-13T00:52:06.067Z,0.00
2017-11-13T00:53:06.053Z,0.00
2017-11-13T00:54:06.003Z,0.00
2017-11-13T00:55:05.989Z,0.00
2017-11-13T00:56:05.943Z,0.00
2017-11-13T00:57:05.919Z,0.00
2017-11-13T00:58:05.885Z,0.00
2017-11-13T00:59:05.853Z,0.00
2017-11-13T01:00:05.824Z,0.00
2017-11-13T01:01:05.789Z,0.00
2017-11-13T01:02:05.768Z,0.00
2017-11-13T01:03:05.982Z,0.00
2017-11-13T01:04:05.711Z,0.00
2017-11-13T01:05:05.672Z,0.00
2017-11-13T01:06:05.646Z,0.00
2017-11-13T01:07:05.621Z,0.00
2017-11-13T01:08:05.583Z,0.00
2017-11-13T01:09:05.907Z,0.00
2017-11-13T01:10:05.525Z,0.00
2017-11-13T01:11:05.501Z,0.00
2017-11-13T01:12:05.474Z,0.00
2017-11-13T01:13:05.454Z,0.00
2017-11-13T01:14:05.418Z,0.00
2017-11-13T01:15:05.382Z,0.00
2017-11-13T01:16:05.354Z,0.00
2017-11-13T01:17:05.321Z,0.00
2017-11-13T01:18:05.290Z,0.00
2017-11-13T01:19:05.263Z,0.00
2017-11-13T01:20:05.232Z,0.00
2017-11-13T01:21:05.201Z,0.00
2017-11-13T01:22:05.172Z,0.00
2017-11-13T01:23:05.141Z,0.00
2017-11-13T01:24:05.116Z,0.00
2017-11-13T01:25:05.087Z,0.00
2017-11-13T01:26:05.055Z,0.00
2017-11-13T01:27:05.323Z,0.00
2017-11-13T01:28:04.998Z,0.00
2017-11-13T01:29:04.964Z,0.00
2017-11-13T01:30:04.938Z,0.00
2017-11-13T01:31:04.910Z,0.00
2017-11-13T01:32:04.872Z,0.00
2017-11-13T01:33:05.101Z,0.00
2017-11-13T01:34:04.822Z,0.00
2017-11-13T01:35:04.787Z,0.00
2017-11-13T01:36:04.760Z,0.00
2017-11-13T01:37:04.733Z,0.00
2017-11-13T01:38:04.695Z,0.00
2017-11-13T01:39:04.671Z,0.00
2017-11-13T01:40:04.640Z,0.00
2017-11-13T01:41:04.618Z,0.00
2017-11-13T01:42:04.579Z,0.00
2017-11-13T01:43:04.548Z,0.00
2017-11-13T01:44:04.517Z,0.00
2017-11-13T01:45:04.742Z,0.00
2017-11-13T01:46:04.457Z,0.00
2017-11-13T01:47:04.430Z,0.00
2017-11-13T01:48:04.405Z,0.00
2017-11-13T01:49:04.373Z,0.00
2017-11-13T01:50:04.346Z,0.00
2017-11-13T01:51:04.318Z,0.00
2017-11-13T01:52:04.291Z,0.00
2017-11-13T01:53:04.254Z,0.00
2017-11-13T01:54:04.226Z,0.00
2017-11-13T01:55:04.194Z,0.00
2017-11-13T01:56:04.170Z,0.00
2017-11-13T01:57:04.137Z,0.00
2017-11-13T01:58:04.113Z,0.00
2017-11-13T01:59:04.086Z,0.00
2017-11-13T02:00:04.055Z,0.00
2017-11-13T02:01:04.017Z,0.00
2017-11-13T02:02:03.983Z,0.00
2017-11-13T02:03:03.956Z,0.00
2017-11-13T02:04:03.935Z,0.00
2017-11-13T02:05:03.907Z,0.00
2017-11-13T02:06:03.867Z,0.00
2017-11-13T02:07:03.842Z,0.00
2017-11-13T02:08:03.816Z,0.00
2017-11-13T02:09:04.080Z,0.00
2017-11-13T02:10:03.760Z,0.00
2017-11-13T02:11:03.718Z,0.00
2017-11-13T02:12:03.689Z,0.00
2017-11-13T02:13:03.662Z,0.00
2017-11-13T02:14:03.632Z,0.00
2017-11-13T02:15:03.605Z,0.00
2017-11-13T02:16:03.568Z,0.00
2017-11-13T02:17:03.551Z,0.00
2017-11-13T02:18:03.515Z,0.00
2017-11-13T02:19:03.736Z,0.00
2017-11-13T02:20:03.448Z,0.00
2017-11-13T02:21:03.420Z,0.00
2017-11-13T02:22:03.397Z,0.00
2017-11-13T02:23:03.364Z,0.00
2017-11-13T02:24:03.337Z,0.00
2017-11-13T02:25:03.309Z,0.00
2017-11-13T02:26:03.276Z,0.00
2017-11-13T02:27:03.245Z,0.00
2017-11-13T02:28:03.214Z,0.00
2017-11-13T02:29:03.191Z,0.00
2017-11-13T02:30:03.160Z,0.00
2017-11-13T02:31:03.134Z,0.00
2017-11-13T02:32:03.095Z,0.00
2017-11-13T02:33:03.077Z,0.00
2017-11-13T02:34:03.044Z,0.00
2017-11-13T02:35:03.011Z,0.00
2017-11-13T02:36:02.979Z,0.00
2017-11-13T02:37:02.947Z,0.00
2017-11-13T02:38:02.921Z,0.00
2017-11-13T02:39:03.156Z,0.00
2017-11-13T02:40:02.857Z,0.00
2017-11-13T02:41:02.832Z,0.00
2017-11-13T02:42:02.804Z,0.00
2017-11-13T02:43:03.123Z,0.00
2017-11-13T02:44:02.751Z,0.00
2017-11-13T02:45:02.719Z,0.00
2017-11-13T02:46:02.683Z,0.00
2017-11-13T02:47:02.650Z,0.00
2017-11-13T02:48:02.626Z,0.00
2017-11-13T02:49:02.595Z,0.00
2017-11-13T02:50:02.566Z,0.00
2017-11-13T02:51:02.534Z,0.00
2017-11-13T02:52:02.505Z,0.00
2017-11-13T02:53:02.472Z,0.00
2017-11-13T02:54:02.451Z,0.00
2017-11-13T02:55:02.673Z,0.00
2017-11-13T02:56:02.388Z,0.00
2017-11-13T02:57:02.357Z,0.00
2017-11-13T02:58:02.330Z,0.00
2017-11-13T02:59:02.305Z,0.00
2017-11-13T03:00:02.264Z,0.00
2017-11-13T03:01:02.239Z,0.00
2017-11-13T03:02:02.213Z,0.00
2017-11-13T03:03:02.180Z,0.00
2017-11-13T03:04:02.146Z,0.00
2017-11-13T03:05:02.121Z,0.00
2017-11-13T03:06:02.091Z,0.00
2017-11-13T03:07:02.066Z,0.00
2017-11-13T03:08:02.026Z,0.00
2017-11-13T03:09:01.999Z,0.00
2017-11-13T03:10:01.974Z,0.00
2017-11-13T03:11:01.947Z,0.00
2017-11-13T03:12:01.915Z,0.00
2017-11-13T03:13:02.131Z,0.00
2017-11-13T03:14:01.852Z,0.00
2017-11-13T03:15:01.820Z,0.00
2017-11-13T03:16:01.791Z,0.00
2017-11-13T03:17:01.760Z,0.00
2017-11-13T03:18:01.732Z,0.00
2017-11-13T03:19:02.003Z,0.00
2017-11-13T03:20:01.672Z,0.00
2017-11-13T03:21:01.643Z,0.00
2017-11-13T03:22:01.616Z,0.00
2017-11-13T03:23:01.582Z,0.00
2017-11-13T03:24:01.550Z,0.00
2017-11-13T03:25:01.786Z,0.00
2017-11-13T03:26:01.496Z,0.00
2017-11-13T03:27:01.465Z,0.00
2017-11-13T03:28:01.435Z,0.00
2017-11-13T03:29:01.410Z,0.00
2017-11-13T03:30:01.383Z,0.00
2017-11-13T03:31:01.600Z,0.00
2017-11-13T03:32:01.313Z,0.00
2017-11-13T03:33:01.279Z,0.00
2017-11-13T03:34:01.256Z,0.00
2017-11-13T03:35:01.218Z,0.00
2017-11-13T03:36:01.196Z,0.00
2017-11-13T03:37:01.168Z,0.00
2017-11-13T03:38:01.131Z,0.00
2017-11-13T03:39:01.098Z,0.00
2017-11-13T03:40:01.076Z,0.00
2017-11-13T03:41:01.043Z,0.00
2017-11-13T03:42:01.019Z,0.00
2017-11-13T03:43:00.977Z,0.00
2017-11-13T03:44:00.950Z,0.00
2017-11-13T03:45:00.917Z,0.00
2017-11-13T03:46:00.886Z,0.00
2017-11-13T03:47:00.858Z,0.00
2017-11-13T03:48:01.078Z,0.00
2017-11-13T03:49:00.798Z,0.00
2017-11-13T03:50:00.763Z,0.00
2017-11-13T03:51:00.740Z,0.00
2017-11-13T03:52:00.709Z,0.00
2017-11-13T03:53:00.678Z,0.00
2017-11-13T03:54:00.651Z,0.00
2017-11-13T03:55:00.617Z,0.00
2017-11-13T03:56:00.585Z,0.00
2017-11-13T03:57:00.561Z,0.00
2017-11-13T03:58:00.521Z,0.00
2017-11-13T03:59:00.497Z,0.00
2017-11-13T04:00:00.768Z,0.00
2017-11-13T04:01:00.430Z,0.00
2017-11-13T04:02:00.397Z,0.00
2017-11-13T04:03:00.381Z,0.00
2017-11-13T04:04:00.340Z,0.00
2017-11-13T04:05:00.311Z,0.00
2017-11-13T04:06:00.528Z,0.00
2017-11-13T04:07:00.253Z,0.00
2017-11-13T04:08:00.220Z,0.00
2017-11-13T04:09:00.186Z,0.00
2017-11-13T04:10:00.162Z,0.00
2017-11-13T04:11:00.135Z,0.00
2017-11-13T04:12:00.109Z,0.00
2017-11-13T04:13:00.068Z,0.00
2017-11-13T04:14:00.042Z,0.00
2017-11-13T04:15:00.002Z,0.00
2017-11-13T04:15:59.977Z,0.00
2017-11-13T04:16:59.952Z,0.00
2017-11-13T04:17:59.923Z,0.00
2017-11-13T04:18:59.889Z,0.00
2017-11-13T04:19:59.852Z,0.00
2017-11-13T04:20:59.826Z,0.00
2017-11-13T04:21:59.791Z,0.00
2017-11-13T04:22:59.762Z,0.00
2017-11-13T04:24:00.593Z,0.00
2017-11-13T04:24:59.705Z,0.00
2017-11-13T04:25:59.670Z,0.00
2017-11-13T04:26:59.648Z,0.00
2017-11-13T04:27:59.619Z,0.00
2017-11-13T04:28:59.580Z,0.00
2017-11-13T04:29:59.552Z,0.00
2017-11-13T04:30:59.524Z,0.00
2017-11-13T04:31:59.489Z,0.00
2017-11-13T04:32:59.468Z,0.00
2017-11-13T04:33:59.430Z,0.00
2017-11-13T04:34:59.400Z,0.00
2017-11-13T04:35:59.367Z,0.00
2017-11-13T04:36:59.336Z,0.00
2017-11-13T04:37:59.306Z,0.00
2017-11-13T04:38:59.272Z,0.00
2017-11-13T04:39:59.244Z,0.00
2017-11-13T04:40:59.463Z,0.00
2017-11-13T04:41:59.184Z,0.00
2017-11-13T04:42:59.152Z,0.00
2017-11-13T04:43:59.133Z,0.00
2017-11-13T04:44:59.096Z,0.00
2017-11-13T04:45:59.069Z,0.00
2017-11-13T04:46:59.394Z,0.00
2017-11-13T04:47:59.000Z,0.00
2017-11-13T04:48:58.972Z,0.00
2017-11-13T04:49:58.941Z,0.00
2017-11-13T04:50:58.910Z,0.00
2017-11-13T04:51:58.886Z,0.00
2017-11-13T04:52:59.099Z,0.00
2017-11-13T04:53:58.817Z,0.00
2017-11-13T04:54:58.795Z,0.00
2017-11-13T04:55:58.755Z,0.00
2017-11-13T04:56:58.720Z,0.00
2017-11-13T04:57:58.705Z,0.00
2017-11-13T04:58:58.676Z,0.00
2017-11-13T04:59:58.635Z,0.00
2017-11-13T05:00:58.602Z,0.00
2017-11-13T05:01:58.574Z,0.00
2017-11-13T05:02:58.539Z,0.00
2017-11-13T05:03:58.511Z,0.00
2017-11-13T05:04:58.483Z,0.00
2017-11-13T05:05:58.465Z,0.00
2017-11-13T05:06:58.420Z,0.00
2017-11-13T05:07:58.389Z,0.00
2017-11-13T05:08:58.356Z,0.00
2017-11-13T05:09:58.327Z,0.00
2017-11-13T05:10:58.542Z,0.00
2017-11-13T05:11:58.261Z,0.00
2017-11-13T05:12:58.231Z,0.00
2017-11-13T05:13:58.211Z,0.00
2017-11-13T05:14:58.175Z,0.00
2017-11-13T05:15:58.147Z,0.00
2017-11-13T05:16:58.106Z,0.00
2017-11-13T05:17:58.080Z,0.00
2017-11-13T05:18:58.046Z,0.00
2017-11-13T05:19:58.017Z,0.00
2017-11-13T05:20:57.995Z,0.00
2017-11-13T05:21:57.963Z,0.00
2017-11-13T05:22:58.170Z,0.00
2017-11-13T05:23:57.896Z,0.00
2017-11-13T05:24:57.865Z,0.00
2017-11-13T05:25:57.827Z,0.00
2017-11-13T05:26:57.800Z,0.00
2017-11-13T05:27:57.764Z,0.00
2017-11-13T05:28:57.736Z,0.00
2017-11-13T05:29:57.709Z,0.00
2017-11-13T05:30:57.674Z,0.00
2017-11-13T05:31:57.652Z,0.00
2017-11-13T05:32:57.613Z,0.00
2017-11-13T05:33:57.834Z,0.00
2017-11-13T05:34:57.552Z,0.00
2017-11-13T05:35:57.525Z,0.00
2017-11-13T05:36:57.489Z,0.00
2017-11-13T05:37:57.457Z,0.00
2017-11-13T05:38:57.422Z,0.00
2017-11-13T05:39:57.393Z,0.00
2017-11-13T05:40:57.373Z,0.00
2017-11-13T05:41:57.336Z,0.00
2017-11-13T05:42:57.305Z,0.00
2017-11-13T05:43:57.275Z,0.00
2017-11-13T05:44:57.245Z,0.00
2017-11-13T05:45:57.508Z,0.00
2017-11-13T05:46:57.181Z,0.00
2017-11-13T05:47:57.169Z,0.00
2017-11-13T05:48:57.116Z,0.00
2017-11-13T05:49:57.081Z,0.00
2017-11-13T05:50:57.055Z,0.00
2017-11-13T05:51:57.334Z,0.00
2017-11-13T05:52:56.988Z,0.00
2017-11-13T05:53:56.963Z,0.00
2017-11-13T05:54:56.932Z,0.00
2017-11-13T05:55:56.894Z,0.00
2017-11-13T05:56:56.865Z,0.00
2017-11-13T05:57:56.832Z,0.00
2017-11-13T05:58:56.810Z,0.00
2017-11-13T05:59:56.778Z,0.00
2017-11-13T06:00:56.740Z,0.00
2017-11-13T06:01:56.710Z,4.00
2017-11-13T06:02:56.679Z,4.00
2017-11-13T06:03:56.652Z,4.00
2017-11-13T06:04:56.613Z,0.00
2017-11-13T06:05:56.587Z,4.00
2017-11-13T06:06:56.554Z,4.00
2017-11-13T06:07:56.519Z,4.00
2017-11-13T06:08:56.739Z,4.00
2017-11-13T06:09:56.463Z,8.00
2017-11-13T06:10:56.434Z,8.00
2017-11-13T06:11:56.397Z,8.00
2017-11-13T06:12:56.366Z,12.00
2017-11-13T06:13:56.341Z,12.00
2017-11-13T06:14:56.552Z,12.00
2017-11-13T06:15:56.272Z,16.00
2017-11-13T06:16:56.240Z,20.00
2017-11-13T06:17:56.217Z,20.00
2017-11-13T06:18:56.184Z,28.00
2017-11-13T06:19:56.146Z,28.00
2017-11-13T06:20:56.113Z,36.00
2017-11-13T06:21:56.082Z,40.00
2017-11-13T06:22:56.058Z,52.00
2017-11-13T06:23:56.020Z,56.00
2017-11-13T06:24:55.993Z,64.00
2017-11-13T06:25:55.969Z,76.00
2017-11-13T06:26:56.178Z,84.00
2017-11-13T06:27:55.899Z,100.00
2017-11-13T06:28:55.869Z,116.00
2017-11-13T06:29:55.833Z,132.00
2017-11-13T06:30:55.801Z,148.00
2017-11-13T06:31:55.774Z,168.00
2017-11-13T06:32:55.752Z,188.00
2017-11-13T06:33:55.705Z,216.00
2017-11-13T06:34:55.674Z,240.00
2017-11-13T06:35:55.647Z,268.00
2017-11-13T06:36:55.612Z,296.00
2017-11-13T06:37:55.589Z,328.00
2017-11-13T06:38:55.560Z,360.00
2017-11-13T06:39:55.520Z,400.00
2017-11-13T06:40:55.485Z,440.00
2017-11-13T06:41:55.465Z,476.00
2017-11-13T06:42:55.426Z,520.00
2017-11-13T06:43:55.397Z,564.00
2017-11-13T06:44:55.614Z,612.00
2017-11-13T06:45:55.353Z,660.00
2017-11-13T06:46:55.326Z,708.00
2017-11-13T06:47:55.266Z,764.00
2017-11-13T06:48:55.235Z,816.00
2017-11-13T06:49:55.210Z,872.00
2017-11-13T06:50:55.174Z,928.00
2017-11-13T06:51:55.143Z,992.00
2017-11-13T06:52:55.108Z,1064.00
2017-11-13T06:53:55.080Z,1136.00
2017-11-13T06:54:55.060Z,1220.00
2017-11-13T06:55:55.018Z,1308.00
2017-11-13T06:56:54.986Z,1404.00
2017-11-13T06:57:54.959Z,1500.00
2017-11-13T06:58:54.921Z,1600.00
2017-11-13T06:59:54.893Z,1712.00
2017-11-13T07:00:54.859Z,1812.00
2017-11-13T07:01:54.840Z,1924.00
2017-11-13T07:02:55.201Z,2036.00
2017-11-13T07:03:54.767Z,2148.00
2017-11-13T07:04:54.740Z,2284.00
2017-11-13T07:05:54.707Z,2408.00
2017-11-13T07:06:54.678Z,2540.00
2017-11-13T07:07:54.645Z,2668.00
2017-11-13T07:08:54.618Z,2824.00
2017-11-13T07:09:54.587Z,2972.00
2017-11-13T07:10:54.552Z,3096.00
2017-11-13T07:11:54.525Z,3240.00
2017-11-13T07:12:54.748Z,3388.00
2017-11-13T07:13:54.458Z,3516.00
2017-11-13T07:14:54.433Z,3676.00
2017-11-13T07:15:54.395Z,3812.00
2017-11-13T07:16:54.371Z,3968.00
2017-11-13T07:17:54.342Z,4172.00
2017-11-13T07:18:54.305Z,4368.00
2017-11-13T07:19:54.285Z,4556.00
2017-11-13T07:20:54.250Z,4716.00
2017-11-13T07:21:54.217Z,4912.00
2017-11-13T07:22:54.183Z,5092.00
2017-11-13T07:23:54.158Z,5296.00
2017-11-13T07:24:54.123Z,5580.00
2017-11-13T07:25:54.099Z,5808.00
2017-11-13T07:26:54.065Z,5936.00
2017-11-13T07:27:54.035Z,6160.00
2017-11-13T07:28:54.013Z,6368.00
2017-11-13T07:29:53.988Z,6616.00
2017-11-13T07:30:53.944Z,6724.00
2017-11-13T07:31:53.916Z,6880.00
2017-11-13T07:32:53.889Z,7184.00
2017-11-13T07:33:53.866Z,7476.00
2017-11-13T07:34:53.828Z,7616.00
2017-11-13T07:35:53.796Z,7856.00
2017-11-13T07:36:53.770Z,7936.00
2017-11-13T07:37:53.737Z,8172.00
2017-11-13T07:38:53.713Z,8496.00
2017-11-13T07:39:53.691Z,8760.00
2017-11-13T07:40:53.649Z,8964.00
2017-11-13T07:41:53.623Z,9020.00
2017-11-13T07:42:53.589Z,9176.00
2017-11-13T07:43:53.562Z,9440.00
2017-11-13T07:44:53.531Z,9688.00
2017-11-13T07:45:53.509Z,9792.00
2017-11-13T07:46:53.480Z,10052.00
2017-11-13T07:47:53.450Z,10112.00
2017-11-13T07:48:53.419Z,10268.00
2017-11-13T07:49:53.393Z,10460.00
2017-11-13T07:50:53.356Z,10488.00
2017-11-13T07:51:53.338Z,10792.00
2017-11-13T07:52:53.305Z,11048.00
2017-11-13T07:53:53.277Z,11224.00
2017-11-13T07:54:53.543Z,11156.00
2017-11-13T07:55:53.215Z,11020.00
2017-11-13T07:56:53.206Z,11484.00
2017-11-13T07:57:53.159Z,11856.00
2017-11-13T07:58:53.138Z,12040.00
2017-11-13T07:59:53.104Z,12024.00
2017-11-13T08:00:53.075Z,11792.00
2017-11-13T08:01:53.049Z,11216.00
2017-11-13T08:02:53.020Z,11544.00
2017-11-13T08:03:52.999Z,12456.00
2017-11-13T08:04:52.966Z,12860.00
2017-11-13T08:05:52.934Z,13184.00
2017-11-13T08:06:53.008Z,13248.00
2017-11-13T08:07:52.887Z,13728.00
2017-11-13T08:08:52.845Z,14496.00
2017-11-13T08:09:52.828Z,14464.00
2017-11-13T08:10:52.796Z,14240.00
2017-11-13T08:11:52.766Z,14752.00
2017-11-13T08:12:52.983Z,15040.00
2017-11-13T08:13:52.708Z,14848.00
2017-11-13T08:14:52.677Z,15552.00
2017-11-13T08:15:52.651Z,16160.00
2017-11-13T08:16:52.639Z,16416.00
2017-11-13T08:17:52.596Z,15744.00
2017-11-13T08:18:52.819Z,16096.00
2017-11-13T08:19:52.542Z,15040.00
2017-11-13T08:20:52.514Z,13664.00
2017-11-13T08:21:52.502Z,13188.00
2017-11-13T08:22:52.459Z,12568.00
2017-11-13T08:23:52.428Z,12276.00
2017-11-13T08:24:52.406Z,12224.00
2017-11-13T08:25:52.374Z,12048.00
2017-11-13T08:26:52.346Z,12264.00
2017-11-13T08:27:52.322Z,12384.00
2017-11-13T08:28:52.297Z,12544.00
2017-11-13T08:29:52.266Z,12580.00
2017-11-13T08:30:52.248Z,12628.00
2017-11-13T08:31:52.218Z,12516.00
2017-11-13T08:32:52.186Z,12532.00
2017-11-13T08:33:52.160Z,13092.00
2017-11-13T08:34:52.134Z,13400.00
2017-11-13T08:35:52.408Z,13380.00
2017-11-13T08:36:52.078Z,13884.00
2017-11-13T08:37:52.049Z,15248.00
2017-11-13T08:38:52.019Z,17088.00
2017-11-13T08:39:51.996Z,18144.00
2017-11-13T08:40:51.976Z,17952.00
2017-11-13T08:41:51.941Z,17856.00
2017-11-13T08:42:51.914Z,18240.00
2017-11-13T08:43:51.895Z,18816.00
2017-11-13T08:44:51.867Z,19072.00
2017-11-13T08:45:51.837Z,19392.00
2017-11-13T08:46:51.816Z,20128.00
2017-11-13T08:47:51.781Z,20672.00
2017-11-13T08:48:51.757Z,20736.00
2017-11-13T08:49:51.725Z,21088.00
2017-11-13T08:50:51.713Z,21216.00
2017-11-13T08:51:51.679Z,21504.00
2017-11-13T08:52:51.649Z,21120.00
2017-11-13T08:53:51.628Z,21024.00
2017-11-13T08:54:51.594Z,20512.00
2017-11-13T08:55:51.574Z,19904.00
2017-11-13T08:56:51.550Z,19744.00
2017-11-13T08:57:51.520Z,19232.00
2017-11-13T08:58:51.504Z,19808.00
2017-11-13T08:59:51.471Z,19360.00
2017-11-13T09:00:51.455Z,18528.00
2017-11-13T09:01:51.419Z,18880.00
2017-11-13T09:02:51.401Z,20160.00
2017-11-13T09:03:51.368Z,20352.00
2017-11-13T09:04:51.353Z,21216.00
2017-11-13T09:05:51.316Z,21024.00
2017-11-13T09:06:51.295Z,20256.00
2017-11-13T09:07:51.268Z,20256.00
2017-11-13T09:08:51.268Z,19648.00
2017-11-13T09:09:51.211Z,19136.00
2017-11-13T09:10:51.201Z,19072.00
2017-11-13T09:11:51.164Z,18496.00
2017-11-13T09:12:51.136Z,19168.00
2017-11-13T09:13:51.116Z,20320.00
2017-11-13T09:14:51.095Z,20192.00
2017-11-13T09:15:51.059Z,20480.00
2017-11-13T09:16:51.040Z,21408.00
2017-11-13T09:17:51.014Z,22560.00
2017-11-13T09:18:50.989Z,21632.00
2017-11-13T09:19:50.970Z,22368.00
2017-11-13T09:20:50.942Z,23168.00
2017-11-13T09:21:50.923Z,22816.00
2017-11-13T09:22:50.897Z,21632.00
2017-11-13T09:23:50.863Z,19584.00
2017-11-13T09:24:50.843Z,20864.00
2017-11-13T09:25:50.822Z,22816.00
2017-11-13T09:26:50.790Z,21280.00
2017-11-13T09:27:50.764Z,19968.00
2017-11-13T09:28:50.742Z,21152.00
2017-11-13T09:29:50.723Z,19264.00
2017-11-13T09:30:50.689Z,23840.00
2017-11-13T09:31:50.673Z,24192.00
2017-11-13T09:32:50.648Z,23776.00
2017-11-13T09:33:50.622Z,24032.00
2017-11-13T09:34:50.594Z,24480.00
2017-11-13T09:35:50.573Z,24768.00
2017-11-13T09:36:50.549Z,24992.00
2017-11-13T09:37:50.527Z,25248.00
2017-11-13T09:38:50.496Z,25312.00
2017-11-13T09:39:50.472Z,25216.00
2017-11-13T09:40:50.448Z,23680.00
2017-11-13T09:41:50.427Z,19936.00
2017-11-13T09:42:50.400Z,24160.00
2017-11-13T09:43:50.381Z,22016.00
2017-11-13T09:44:50.353Z,23712.00
2017-11-13T09:45:50.346Z,20480.00
2017-11-13T09:46:50.304Z,24768.00
2017-11-13T09:47:50.288Z,24736.00
2017-11-13T09:48:50.252Z,25376.00
2017-11-13T09:49:50.232Z,26976.00
2017-11-13T09:50:50.204Z,26624.00
2017-11-13T09:51:50.177Z,27552.00
2017-11-13T09:52:50.164Z,27456.00
2017-11-13T09:53:50.129Z,27680.00
2017-11-13T09:54:50.098Z,27872.00
2017-11-13T09:55:50.079Z,27392.00
2017-11-13T09:56:50.056Z,26976.00
2017-11-13T09:57:50.029Z,27104.00
2017-11-13T09:58:50.007Z,27200.00
2017-11-13T09:59:49.982Z,27520.00
2017-11-13T10:00:49.958Z,27008.00
2017-11-13T10:01:49.935Z,27328.00
2017-11-13T10:02:49.917Z,26688.00
2017-11-13T10:03:49.891Z,28064.00
2017-11-13T10:04:49.873Z,29056.00
2017-11-13T10:05:49.833Z,29216.00
2017-11-13T10:06:49.809Z,28864.00
2017-11-13T10:07:49.784Z,29280.00
2017-11-13T10:08:49.764Z,29920.00
2017-11-13T10:09:49.738Z,27904.00
2017-11-13T10:10:49.718Z,25536.00
2017-11-13T10:11:49.693Z,25440.00
2017-11-13T10:12:49.661Z,26304.00
2017-11-13T10:13:49.645Z,27328.00
2017-11-13T10:14:49.623Z,28672.00
2017-11-13T10:15:49.600Z,29888.00
2017-11-13T10:16:49.565Z,30144.00
2017-11-13T10:17:49.547Z,30048.00
2017-11-13T10:18:49.524Z,30368.00
2017-11-13T10:19:49.497Z,31008.00
2017-11-13T10:20:49.478Z,32320.00
2017-11-13T10:21:49.452Z,32864.00
2017-11-13T10:22:49.431Z,32896.00
2017-11-13T10:23:49.410Z,33152.00
2017-11-13T10:24:49.378Z,33856.00
2017-11-13T10:25:49.360Z,32960.00
2017-11-13T10:26:49.332Z,32640.00
2017-11-13T10:27:49.313Z,32928.00
2017-11-13T10:28:49.292Z,31968.00
2017-11-13T10:29:49.271Z,31616.00
2017-11-13T10:30:49.247Z,31424.00
2017-11-13T10:31:49.218Z,33792.00
2017-11-13T10:32:49.193Z,33440.00
2017-11-13T10:33:49.169Z,32256.00
2017-11-13T10:34:49.152Z,32512.00
2017-11-13T10:35:49.127Z,31808.00
2017-11-13T10:36:49.107Z,33568.00
2017-11-13T10:37:49.080Z,34400.00
2017-11-13T10:38:49.066Z,34560.00
2017-11-13T10:39:49.037Z,31936.00
2017-11-13T10:40:49.009Z,34976.00
2017-11-13T10:41:48.990Z,37504.00
2017-11-13T10:42:48.966Z,36896.00
2017-11-13T10:43:48.939Z,34176.00
2017-11-13T10:44:48.916Z,31744.00
2017-11-13T10:45:48.950Z,29504.00
2017-11-13T10:46:48.872Z,26944.00
2017-11-13T10:47:48.857Z,27520.00
2017-11-13T10:48:48.855Z,31232.00
2017-11-13T10:49:48.807Z,32192.00
2017-11-13T10:50:48.794Z,32192.00
2017-11-13T10:51:48.769Z,31776.00
2017-11-13T10:52:48.755Z,31200.00
2017-11-13T10:53:48.729Z,31616.00
2017-11-13T10:54:48.696Z,32032.00
2017-11-13T10:55:48.678Z,32480.00
2017-11-13T10:56:48.661Z,33600.00
2017-11-13T10:57:48.632Z,33536.00
2017-11-13T10:58:48.603Z,32384.00
2017-11-13T10:59:48.587Z,33760.00
2017-11-13T11:00:48.572Z,33760.00
2017-11-13T11:01:48.539Z,33696.00
2017-11-13T11:02:48.877Z,33696.00
2017-11-13T11:03:48.497Z,33568.00
2017-11-13T11:04:48.482Z,34336.00
2017-11-13T11:05:48.455Z,34048.00
2017-11-13T11:06:48.425Z,33632.00
2017-11-13T11:07:48.414Z,33568.00
2017-11-13T11:08:48.693Z,33088.00
2017-11-13T11:09:48.364Z,33952.00
2017-11-13T11:10:48.343Z,32768.00
2017-11-13T11:11:48.318Z,32032.00
2017-11-13T11:12:48.324Z,30912.00
2017-11-13T11:13:48.327Z,30080.00
2017-11-13T11:14:48.252Z,29536.00
2017-11-13T11:15:48.264Z,29888.00
2017-11-13T11:16:48.212Z,29632.00
2017-11-13T11:17:48.202Z,29600.00
2017-11-13T11:18:48.169Z,30304.00
2017-11-13T11:19:48.164Z,29440.00
2017-11-13T11:20:48.319Z,29760.00
2017-11-13T11:21:48.104Z,28576.00
2017-11-13T11:22:48.075Z,27456.00
2017-11-13T11:23:48.059Z,25760.00
2017-11-13T11:24:48.044Z,25760.00
2017-11-13T11:25:48.012Z,26560.00
2017-11-13T11:26:47.987Z,24896.00
2017-11-13T11:27:47.979Z,23552.00
2017-11-13T11:28:47.943Z,23520.00
2017-11-13T11:29:47.918Z,23456.00
2017-11-13T11:30:47.898Z,23104.00
2017-11-13T11:31:47.873Z,22048.00
2017-11-13T11:32:47.852Z,22624.00
2017-11-13T11:33:47.827Z,25440.00
2017-11-13T11:34:47.803Z,26752.00
2017-11-13T11:35:47.804Z,19840.00
2017-11-13T11:36:47.762Z,30176.00
2017-11-13T11:37:47.739Z,32384.00
2017-11-13T11:38:47.711Z,31968.00
2017-11-13T11:39:47.688Z,29248.00
2017-11-13T11:40:47.672Z,30112.00
2017-11-13T11:41:47.646Z,33632.00
2017-11-13T11:42:47.621Z,34016.00
2017-11-13T11:43:47.603Z,35328.00
2017-11-13T11:44:47.574Z,39136.00
2017-11-13T11:45:47.559Z,38976.00
2017-11-13T11:46:47.536Z,37792.00
2017-11-13T11:47:47.509Z,37600.00
2017-11-13T11:48:47.493Z,36320.00
2017-11-13T11:49:47.471Z,34816.00
2017-11-13T11:50:47.444Z,36832.00
2017-11-13T11:51:47.418Z,38176.00
2017-11-13T11:52:47.414Z,38144.00
2017-11-13T11:53:47.377Z,38816.00
2017-11-13T11:54:47.356Z,38112.00
2017-11-13T11:55:47.329Z,36608.00
2017-11-13T11:56:47.309Z,36992.00
2017-11-13T11:57:47.289Z,36000.00
2017-11-13T11:58:47.261Z,35840.00
2017-11-13T11:59:47.249Z,35072.00
2017-11-13T12:00:47.225Z,37024.00
2017-11-13T12:01:47.195Z,37440.00
2017-11-13T12:02:47.180Z,35008.00
2017-11-13T12:03:47.155Z,34784.00
2017-11-13T12:04:47.129Z,34592.00
2017-11-13T12:05:47.111Z,34496.00
2017-11-13T12:06:47.087Z,35584.00
2017-11-13T12:07:47.070Z,35936.00
2017-11-13T12:08:47.046Z,35808.00
2017-11-13T12:09:47.021Z,35424.00
2017-11-13T12:10:46.999Z,36512.00
2017-11-13T12:11:46.977Z,35424.00
2017-11-13T12:12:46.957Z,34336.00
2017-11-13T12:13:46.936Z,34592.00
2017-11-13T12:14:46.909Z,36096.00
2017-11-13T12:15:46.890Z,36576.00
2017-11-13T12:16:46.874Z,35552.00
2017-11-13T12:17:46.853Z,35168.00
2017-11-13T12:18:46.824Z,36736.00
2017-11-13T12:19:46.803Z,8200.00
2017-11-13T12:20:46.784Z,37824.00
2017-11-13T12:21:46.758Z,34944.00
2017-11-13T12:22:46.737Z,34656.00
2017-11-13T12:23:46.710Z,37056.00
2017-11-13T12:24:46.693Z,34784.00
2017-11-13T12:25:46.675Z,34112.00
2017-11-13T12:26:46.649Z,34432.00
2017-11-13T12:27:46.621Z,32032.00
2017-11-13T12:28:46.605Z,36128.00
2017-11-13T12:29:46.586Z,34912.00
2017-11-13T12:30:46.556Z,33216.00
2017-11-13T12:31:46.536Z,14688.00